Time;durP1;ratioP1;P1;durP2;ratioP2;P2;SDS_P1;SDS_P2;PMS_P1;PMS_P2;Temp;Humidity;BMP_temperature;BMP_pressure;BME280_temperature;BME280_humidity;BME280_pressure;Samples;Min_cycle;Max_cycle;Signal;HPM_P1;HPM_P2
2023/05/23 00:01:15;;;;;;;9.30;8.50;;;16.20;98.50;;;;;;5029831;28;20469;-73
2023/05/23 00:03:43;;;;;;;8.50;7.80;;;16.20;98.60;;;;;;5034670;28;20817;-73
2023/05/23 00:06:09;;;;;;;8.90;8.10;;;16.20;98.90;;;;;;5029686;28;20434;-71
2023/05/23 00:08:36;;;;;;;9.10;8.30;;;16.10;98.60;;;;;;5032070;28;20464;-73
2023/05/23 00:11:04;;;;;;;9.40;8.60;;;16.10;99.00;;;;;;5035831;28;20432;-73
2023/05/23 00:13:33;;;;;;;9.38;8.57;;;16.10;99.00;;;;;;5032992;28;20443;-73
2023/05/23 00:16:01;;;;;;;8.75;8.05;;;16.00;99.00;;;;;;5028069;28;20940;-70
2023/05/23 00:18:29;;;;;;;9.73;8.77;;;16.00;99.10;;;;;;5039155;28;20437;-71
2023/05/23 00:20:58;;;;;;;9.63;8.83;;;16.00;98.90;;;;;;5037015;28;20495;-73
2023/05/23 00:23:24;;;;;;;9.43;8.73;;;15.90;99.10;;;;;;5038598;28;20487;-71
2023/05/23 00:25:52;;;;;;;9.98;9.18;;;15.90;99.10;;;;;;5037931;28;20435;-71
2023/05/23 00:28:21;;;;;;;9.83;8.93;;;15.90;99.30;;;;;;5027103;28;20944;-71
2023/05/23 00:30:48;;;;;;;9.60;8.80;;;15.80;99.50;;;;;;5020718;28;20427;-70
2023/05/23 00:33:16;;;;;;;9.75;9.05;;;15.80;99.80;;;;;;5027328;28;20508;-71
2023/05/23 00:35:42;;;;;;;10.57;9.68;;;15.70;99.60;;;;;;5028855;28;20435;-71
2023/05/23 00:38:10;;;;;;;9.52;8.75;;;15.70;99.90;;;;;;5035010;28;20429;-71
2023/05/23 00:40:37;;;;;;;9.93;9.02;;;15.60;99.90;;;;;;5033617;28;20528;-71
2023/05/23 00:43:04;;;;;;;9.93;9.13;;;15.70;99.90;;;;;;5040158;28;20944;-70
2023/05/23 00:45:32;;;;;;;11.10;10.10;;;15.60;99.90;;;;;;5028600;28;20434;-72
2023/05/23 00:47:59;;;;;;;11.60;10.60;;;15.60;99.90;;;;;;5026925;28;20435;-72
2023/05/23 00:50:28;;;;;;;10.80;10.00;;;15.60;99.90;;;;;;5026915;28;20450;-72
2023/05/23 00:52:55;;;;;;;11.63;10.73;;;15.60;99.90;;;;;;5028955;28;20473;-72
2023/05/23 00:55:23;;;;;;;11.98;10.90;;;15.60;99.70;;;;;;5028025;28;20435;-72
2023/05/23 00:57:50;;;;;;;11.52;10.63;;;15.70;99.90;;;;;;5026484;28;20438;-72
2023/05/23 01:00:18;;;;;;;11.30;10.40;;;15.70;99.90;;;;;;5026930;28;20435;-72
2023/05/23 01:02:50;;;;;;;11.32;10.43;;;15.70;99.70;;;;;;5032898;28;20458;-72
2023/05/23 01:05:18;;;;;;;11.38;10.45;;;15.70;99.40;;;;;;5033704;28;20437;-72
2023/05/23 01:07:45;;;;;;;11.00;10.00;;;15.80;99.50;;;;;;5031675;28;20466;-72
2023/05/23 01:10:13;;;;;;;9.57;8.77;;;15.80;98.20;;;;;;5027241;28;20438;-72
2023/05/23 01:12:49;;;;;;;9.80;9.00;;;15.90;98.00;;;;;;5027946;28;20447;-71
2023/05/23 01:15:19;;;;;;;9.85;8.95;;;15.90;98.00;;;;;;5029676;28;20435;-70
2023/05/23 01:17:57;;;;;;;10.00;9.10;;;15.90;98.00;;;;;;5029533;28;20441;-70
2023/05/23 01:20:29;;;;;;;9.95;9.05;;;15.90;98.10;;;;;;5034904;28;20457;-70
2023/05/23 01:23:22;;;;;;;9.32;8.52;;;16.00;97.60;;;;;;5030508;28;20431;-71
2023/05/23 01:26:02;;;;;;;10.25;8.18;;;16.00;97.30;;;;;;5031884;28;20454;-71
2023/05/23 01:28:34;;;;;;;8.52;7.82;;;16.00;97.40;;;;;;5026586;28;20971;-71
2023/05/23 01:31:04;;;;;;;9.40;8.60;;;16.00;97.40;;;;;;5023279;28;20425;-71
2023/05/23 01:33:32;;;;;;;9.60;8.80;;;16.10;97.10;;;;;;5033029;28;20438;-71
2023/05/23 01:36:02;;;;;;;8.82;8.13;;;16.10;97.20;;;;;;5029834;28;20435;-71
2023/05/23 01:38:28;;;;;;;9.03;8.23;;;16.10;97.40;;;;;;5027375;28;20470;-71
2023/05/23 01:40:55;;;;;;;9.38;8.57;;;16.00;97.40;;;;;;5031463;28;20433;-71
2023/05/23 01:43:22;;;;;;;9.00;8.30;;;16.00;97.70;;;;;;5028655;28;20455;-71
2023/05/23 01:45:53;;;;;;;10.10;9.20;;;16.00;97.70;;;;;;5027831;28;20435;-71
2023/05/23 01:48:21;;;;;;;9.70;9.00;;;16.00;97.70;;;;;;5026398;28;20442;-71
2023/05/23 01:50:48;;;;;;;11.18;10.27;;;16.10;98.00;;;;;;5027013;28;20430;-71
2023/05/23 01:53:16;;;;;;;10.43;9.52;;;16.10;97.60;;;;;;5032448;28;20427;-71
2023/05/23 01:55:43;;;;;;;9.50;8.70;;;16.00;97.90;;;;;;5029740;28;20431;-72
2023/05/23 01:58:10;;;;;;;8.95;8.15;;;16.10;98.20;;;;;;5023315;28;20442;-71
2023/05/23 02:00:37;;;;;;;8.25;7.55;;;16.10;97.80;;;;;;5031582;28;20435;-72
2023/05/23 02:03:06;;;;;;;7.30;6.70;;;16.10;97.20;;;;;;5026792;28;20427;-72
2023/05/23 02:05:32;;;;;;;6.90;6.30;;;16.10;97.30;;;;;;5027661;28;20434;-72
2023/05/23 02:07:59;;;;;;;6.43;5.83;;;16.10;96.40;;;;;;5029675;28;20442;-72
2023/05/23 02:10:26;;;;;;;6.20;5.70;;;16.00;96.10;;;;;;5030598;28;20590;-72
2023/05/23 02:12:52;;;;;;;5.80;5.30;;;16.00;96.30;;;;;;5027232;28;20434;-72
2023/05/23 02:15:19;;;;;;;5.70;5.20;;;15.90;96.60;;;;;;5027168;28;20435;-72
2023/05/23 02:17:47;;;;;;;5.97;5.47;;;15.90;96.20;;;;;;5026924;28;20468;-72
2023/05/23 02:20:17;;;;;;;5.80;5.30;;;15.90;96.90;;;;;;5028622;28;20438;-72
2023/05/23 02:22:44;;;;;;;5.18;4.78;;;15.90;96.30;;;;;;5029020;28;20435;-71
2023/05/23 02:25:11;;;;;;;4.90;4.50;;;15.90;96.00;;;;;;5029976;28;20458;-71
2023/05/23 02:27:37;;;;;;;5.10;4.70;;;15.80;95.80;;;;;;5034437;28;20438;-72
2023/05/23 02:30:05;;;;;;;5.00;4.60;;;15.80;95.70;;;;;;5023832;28;20514;-72
2023/05/23 02:32:32;;;;;;;4.80;4.30;;;15.80;95.90;;;;;;5038946;28;20437;-72
2023/05/23 02:34:58;;;;;;;4.70;4.30;;;15.70;95.80;;;;;;5029102;28;20485;-72
2023/05/23 02:37:27;;;;;;;5.05;4.65;;;15.70;96.30;;;;;;5022876;28;20439;-71
2023/05/23 02:39:53;;;;;;;4.50;4.20;;;15.70;95.60;;;;;;5025904;28;20438;-71
2023/05/23 02:42:20;;;;;;;4.60;4.30;;;15.80;96.00;;;;;;5026232;28;20438;-72
2023/05/23 02:44:47;;;;;;;4.80;4.40;;;15.80;95.80;;;;;;5031651;28;20438;-71
2023/05/23 02:47:13;;;;;;;4.88;4.47;;;15.80;95.80;;;;;;5037256;28;20811;-71
2023/05/23 02:49:40;;;;;;;5.18;4.70;;;15.80;95.70;;;;;;5031901;28;20439;-71
2023/05/23 02:52:07;;;;;;;4.50;4.10;;;15.80;95.90;;;;;;5030712;28;20437;-71
2023/05/23 02:54:35;;;;;;;5.70;5.10;;;15.80;96.10;;;;;;5033963;28;20438;-71
2023/05/23 02:57:03;;;;;;;5.60;5.10;;;15.80;95.80;;;;;;5026852;28;20427;-72
2023/05/23 02:59:30;;;;;;;5.15;4.75;;;15.80;95.60;;;;;;5027285;28;20443;-71
2023/05/23 03:01:57;;;;;;;5.63;4.90;;;15.70;95.80;;;;;;5030539;28;21037;-72
2023/05/23 03:04:23;;;;;;;5.77;5.27;;;15.60;96.30;;;;;;5029972;28;20443;-71
2023/05/23 03:06:53;;;;;;;5.37;4.87;;;15.60;96.40;;;;;;5026398;28;20889;-72
2023/05/23 03:09:20;;;;;;;5.47;4.97;;;15.60;96.90;;;;;;5028134;28;20441;-72
2023/05/23 03:11:48;;;;;;;5.93;5.43;;;15.70;96.60;;;;;;5034130;28;20428;-72
2023/05/23 03:14:15;;;;;;;6.70;6.20;;;15.60;96.30;;;;;;5027763;28;20431;-71
2023/05/23 03:16:42;;;;;;;7.00;6.40;;;15.70;96.60;;;;;;5025090;28;20435;-72
2023/05/23 03:19:08;;;;;;;6.75;6.15;;;15.60;96.70;;;;;;5032036;28;20440;-71
2023/05/23 03:21:35;;;;;;;6.38;5.85;;;15.60;96.50;;;;;;5032698;28;20431;-72
2023/05/23 03:24:02;;;;;;;7.00;6.18;;;15.60;96.70;;;;;;5030762;28;20504;-71
2023/05/23 03:26:29;;;;;;;6.35;5.72;;;15.60;97.00;;;;;;5031368;28;20446;-71
2023/05/23 03:28:57;;;;;;;7.75;6.80;;;15.60;96.90;;;;;;5033453;28;20441;-71
2023/05/23 03:31:24;;;;;;;7.07;6.47;;;15.50;97.10;;;;;;5033324;28;20907;-71
2023/05/23 03:33:52;;;;;;;7.33;6.63;;;15.50;97.10;;;;;;5031372;28;20921;-71
2023/05/23 03:36:20;;;;;;;7.45;6.75;;;15.50;97.40;;;;;;5027628;28;20514;-71
2023/05/23 03:38:47;;;;;;;7.80;7.10;;;15.50;97.60;;;;;;5027621;28;20442;-71
2023/05/23 03:41:14;;;;;;;8.00;7.30;;;15.40;98.10;;;;;;5032157;28;20425;-71
2023/05/23 03:43:40;;;;;;;8.38;7.63;;;15.40;98.90;;;;;;5027381;28;20403;-71
2023/05/23 03:46:09;;;;;;;8.93;8.10;;;15.30;99.90;;;;;;5026311;28;20797;-71
2023/05/23 03:48:35;;;;;;;8.65;7.85;;;15.20;99.90;;;;;;5029204;28;20480;-72
2023/05/23 03:51:02;;;;;;;9.00;8.20;;;15.20;99.90;;;;;;5024208;28;20921;-71
2023/05/23 03:53:29;;;;;;;9.30;8.40;;;15.20;99.90;;;;;;5027103;28;20438;-71
2023/05/23 03:55:56;;;;;;;8.50;7.80;;;15.10;99.90;;;;;;5025203;28;20433;-72
2023/05/23 03:58:22;;;;;;;8.57;7.68;;;15.10;99.90;;;;;;5032383;28;20439;-71
2023/05/23 04:00:49;;;;;;;9.57;8.75;;;15.10;99.90;;;;;;5028682;28;20793;-72
2023/05/23 04:03:17;;;;;;;9.40;8.43;;;15.10;99.90;;;;;;5022403;28;20443;-72
2023/05/23 04:05:44;;;;;;;8.90;8.10;;;15.10;99.90;;;;;;5028479;28;20438;-71
2023/05/23 04:08:11;;;;;;;7.88;7.18;;;15.10;99.90;;;;;;5034989;28;20426;-71
2023/05/23 04:10:38;;;;;;;8.10;7.40;;;15.10;99.50;;;;;;5024957;28;20439;-70
2023/05/23 04:13:05;;;;;;;7.70;7.00;;;15.10;99.60;;;;;;5025198;28;20459;-70
2023/05/23 04:15:34;;;;;;;8.25;7.45;;;15.10;99.30;;;;;;5029521;28;20937;-72
2023/05/23 04:18:01;;;;;;;7.35;6.75;;;15.10;99.10;;;;;;5023773;28;20438;-72
2023/05/23 04:20:30;;;;;;;7.57;6.85;;;15.10;99.20;;;;;;5034353;28;20427;-72
2023/05/23 04:22:57;;;;;;;6.70;6.10;;;15.10;98.90;;;;;;5021562;28;20438;-72
2023/05/23 04:25:24;;;;;;;6.63;6.00;;;15.10;99.40;;;;;;5025604;28;20435;-72
2023/05/23 04:27:50;;;;;;;7.20;6.50;;;15.20;98.80;;;;;;5026911;28;20442;-73
2023/05/23 04:30:18;;;;;;;7.13;6.43;;;15.20;98.80;;;;;;5028244;28;20429;-72
2023/05/23 04:32:44;;;;;;;7.10;5.97;;;15.30;98.50;;;;;;5024059;28;20512;-75
2023/05/23 04:35:11;;;;;;;7.40;6.28;;;15.30;98.40;;;;;;5023453;28;20439;-72
2023/05/23 04:37:41;;;;;;;7.03;6.32;;;15.30;97.90;;;;;;5026081;28;20445;-73
2023/05/23 04:40:09;;;;;;;6.47;5.88;;;15.30;98.10;;;;;;5028888;28;20521;-73
2023/05/23 04:42:36;;;;;;;6.13;5.57;;;15.30;98.20;;;;;;5026622;28;20431;-74
2023/05/23 04:45:02;;;;;;;6.93;5.93;;;15.30;98.30;;;;;;5026105;28;20434;-74
2023/05/23 04:47:33;;;;;;;6.32;5.72;;;15.30;97.90;;;;;;5033365;28;20441;-75
2023/05/23 04:50:01;;;;;;;7.03;6.10;;;15.30;98.00;;;;;;5028620;28;20927;-73
2023/05/23 04:52:28;;;;;;;6.90;6.20;;;15.30;98.00;;;;;;5025663;28;21816;-74
2023/05/23 04:54:56;;;;;;;6.82;6.22;;;15.30;98.50;;;;;;5028154;28;20435;-75
2023/05/23 04:57:23;;;;;;;7.00;6.30;;;15.20;98.40;;;;;;5022460;28;20435;-74
2023/05/23 04:59:50;;;;;;;7.00;6.30;;;15.20;99.20;;;;;;5032283;28;20876;-73
2023/05/23 05:02:16;;;;;;;7.40;6.68;;;15.20;98.90;;;;;;5025847;28;20915;-70
2023/05/23 05:04:43;;;;;;;8.68;7.05;;;15.10;99.40;;;;;;5025754;28;20436;-73
2023/05/23 05:07:10;;;;;;;7.50;6.80;;;15.00;99.90;;;;;;5027523;28;20974;-72
2023/05/23 05:09:37;;;;;;;7.88;7.07;;;15.00;99.90;;;;;;5023620;28;20447;-73
2023/05/23 05:12:05;;;;;;;7.30;6.60;;;15.00;99.90;;;;;;5024444;28;20431;-74
2023/05/23 05:14:32;;;;;;;7.63;6.88;;;15.00;99.90;;;;;;5022838;28;20442;-72
2023/05/23 05:17:01;;;;;;;7.70;6.90;;;14.90;99.90;;;;;;5023216;28;20439;-72
2023/05/23 05:19:28;;;;;;;7.57;6.85;;;14.90;99.90;;;;;;5024446;28;20438;-72
2023/05/23 05:21:56;;;;;;;7.30;6.60;;;14.90;99.90;;;;;;5023128;28;20431;-72
2023/05/23 05:24:23;;;;;;;6.70;6.10;;;14.90;99.90;;;;;;5028421;28;20638;-72
2023/05/23 05:26:50;;;;;;;8.18;7.35;;;14.90;99.90;;;;;;5027071;28;20471;-73
2023/05/23 05:29:18;;;;;;;8.80;7.00;;;15.00;99.60;;;;;;5027506;28;20917;-72
2023/05/23 05:31:45;;;;;;;7.60;6.90;;;15.00;99.70;;;;;;5019771;28;20435;-73
2023/05/23 05:34:12;;;;;;;9.20;7.22;;;15.00;99.50;;;;;;5023576;28;20435;-73
2023/05/23 05:36:44;;;;;;;7.57;6.78;;;15.00;99.80;;;;;;5026667;28;20520;-73
2023/05/23 05:39:12;;;;;;;7.10;6.40;;;15.10;99.80;;;;;;5025770;28;20517;-75
2023/05/23 05:41:38;;;;;;;7.57;6.70;;;15.10;99.30;;;;;;5025568;28;20427;-75
2023/05/23 05:44:05;;;;;;;7.50;6.80;;;15.10;99.50;;;;;;5024298;28;20841;-74
2023/05/23 05:46:33;;;;;;;7.37;6.67;;;15.10;99.50;;;;;;5025080;28;20438;-73
2023/05/23 05:49:00;;;;;;;6.40;5.90;;;15.10;99.50;;;;;;5021474;28;20425;-73
2023/05/23 05:51:27;;;;;;;7.93;7.05;;;15.10;99.10;;;;;;5019291;28;20453;-73
2023/05/23 05:53:53;;;;;;;7.15;6.45;;;15.10;99.10;;;;;;5023511;28;20438;-73
2023/05/23 05:56:21;;;;;;;7.57;6.88;;;15.10;99.30;;;;;;5026637;28;20469;-74
2023/05/23 05:58:48;;;;;;;7.28;6.60;;;15.10;99.60;;;;;;5028061;28;20477;-73
2023/05/23 06:01:14;;;;;;;8.10;7.30;;;15.10;99.70;;;;;;5022442;28;20434;-73
2023/05/23 06:03:43;;;;;;;8.40;7.50;;;15.20;99.00;;;;;;5025902;28;20523;-73
2023/05/23 06:06:10;;;;;;;8.57;7.70;;;15.20;98.90;;;;;;5021567;28;20451;-72
2023/05/23 06:08:36;;;;;;;8.00;7.20;;;15.20;98.80;;;;;;5025973;28;20520;-73
2023/05/23 06:11:03;;;;;;;7.72;7.03;;;15.20;98.80;;;;;;5026887;28;20439;-73
2023/05/23 06:13:30;;;;;;;8.10;7.30;;;15.10;99.30;;;;;;5026903;28;20431;-73
2023/05/23 06:15:57;;;;;;;7.85;7.15;;;15.20;99.50;;;;;;5027959;28;20430;-75
2023/05/23 06:18:23;;;;;;;8.70;7.90;;;15.20;99.10;;;;;;5027513;28;20491;-73
2023/05/23 06:20:51;;;;;;;9.48;8.48;;;15.20;99.10;;;;;;5023555;28;20435;-72
2023/05/23 06:23:18;;;;;;;9.10;8.30;;;15.20;99.30;;;;;;5024342;28;20458;-73
2023/05/23 06:25:45;;;;;;;7.70;7.00;;;15.30;99.30;;;;;;5027208;28;20443;-73
2023/05/23 06:28:12;;;;;;;9.35;8.45;;;15.30;98.90;;;;;;5022485;28;20446;-72
2023/05/23 06:30:39;;;;;;;9.10;8.30;;;15.30;98.90;;;;;;5020699;28;20434;-75
2023/05/23 06:33:05;;;;;;;9.13;7.90;;;15.20;99.10;;;;;;5023876;28;20510;-74
2023/05/23 06:35:32;;;;;;;7.95;7.15;;;15.20;99.30;;;;;;5025799;28;20429;-74
2023/05/23 06:38:00;;;;;;;8.48;7.78;;;15.20;99.80;;;;;;5024369;28;20944;-74
2023/05/23 06:40:27;;;;;;;9.50;8.50;;;15.30;99.30;;;;;;5021123;28;20430;-71
2023/05/23 06:42:54;;;;;;;9.37;8.40;;;15.30;98.90;;;;;;5020794;28;20476;-75
2023/05/23 06:45:21;;;;;;;8.90;8.00;;;15.20;98.90;;;;;;5023366;28;20435;-75
2023/05/23 06:47:48;;;;;;;9.00;8.10;;;15.20;99.20;;;;;;5022605;28;20436;-75
2023/05/23 06:50:18;;;;;;;10.63;9.55;;;15.20;99.10;;;;;;5022728;28;20932;-75
2023/05/23 06:52:45;;;;;;;9.43;8.38;;;15.10;99.90;;;;;;5024692;28;20453;-72
2023/05/23 06:55:18;;;;;;;9.40;8.52;;;15.20;99.90;;;;;;5025324;28;20470;-73
2023/05/23 06:57:44;;;;;;;9.88;8.90;;;15.20;99.90;;;;;;5024101;28;20441;-72
2023/05/23 07:00:13;;;;;;;8.80;7.90;;;15.10;99.90;;;;;;5024877;28;20437;-73
2023/05/23 07:02:40;;;;;;;8.90;8.00;;;15.10;99.90;;;;;;5022467;28;20427;-72
2023/05/23 07:05:07;;;;;;;9.68;7.47;;;15.20;99.90;;;;;;5020357;28;20439;-73
2023/05/23 07:07:34;;;;;;;8.90;8.00;;;15.30;99.60;;;;;;5020098;28;20528;-73
2023/05/23 07:10:01;;;;;;;8.57;7.70;;;15.30;99.50;;;;;;5023474;28;20435;-73
2023/05/23 07:12:29;;;;;;;8.68;7.45;;;15.40;99.40;;;;;;5024299;28;20813;-73
2023/05/23 07:14:56;;;;;;;9.50;7.50;;;15.50;98.10;;;;;;5026953;28;20438;-73
2023/05/23 07:17:22;;;;;;;8.35;7.43;;;15.50;97.70;;;;;;5028093;28;20438;-73
2023/05/23 07:19:49;;;;;;;8.63;7.73;;;15.50;97.80;;;;;;5028629;28;20434;-73
2023/05/23 07:22:16;;;;;;;8.50;7.70;;;15.50;97.20;;;;;;5025448;28;20526;-74
2023/05/23 07:24:43;;;;;;;7.82;7.03;;;15.50;97.60;;;;;;5027740;28;20442;-73
2023/05/23 07:27:09;;;;;;;8.65;7.85;;;15.50;97.60;;;;;;5064544;22;20466;-72
2023/05/23 07:29:37;;;;;;;9.70;8.43;;;15.60;97.40;;;;;;5059766;28;20427;-71
2023/05/23 07:32:04;;;;;;;7.30;6.70;;;15.60;97.60;;;;;;5062279;28;20828;-72
2023/05/23 07:34:31;;;;;;;7.57;6.78;;;15.70;97.50;;;;;;5063147;28;20435;-71
2023/05/23 07:36:58;;;;;;;8.15;6.88;;;15.70;97.50;;;;;;5061536;28;21284;-72
2023/05/23 07:39:26;;;;;;;7.15;6.55;;;15.80;97.50;;;;;;5054731;28;20456;-72
2023/05/23 07:41:53;;;;;;;8.57;7.40;;;15.80;97.10;;;;;;5059987;28;20423;-72
2023/05/23 07:44:20;;;;;;;7.97;7.20;;;15.70;97.40;;;;;;5057349;28;20444;-73
2023/05/23 07:46:48;;;;;;;8.25;7.20;;;15.80;97.20;;;;;;5062925;28;20809;-73
2023/05/23 07:49:15;;;;;;;7.60;6.80;;;15.70;97.40;;;;;;5056327;28;20433;-73
2023/05/23 07:51:42;;;;;;;8.15;7.35;;;15.80;96.90;;;;;;5062888;28;20431;-74
2023/05/23 07:54:09;;;;;;;8.07;7.28;;;15.70;96.90;;;;;;5061069;28;20433;-74
2023/05/23 07:56:37;;;;;;;7.57;6.90;;;15.60;97.40;;;;;;5066298;28;20435;-74
2023/05/23 07:59:04;;;;;;;9.15;7.20;;;15.60;97.70;;;;;;5065990;28;20755;-73
2023/05/23 08:01:30;;;;;;;7.30;6.60;;;15.70;98.00;;;;;;5076360;28;20445;-73
2023/05/23 08:03:58;;;;;;;8.63;7.18;;;15.80;97.40;;;;;;5077245;28;20507;-73
2023/05/23 08:06:25;;;;;;;7.60;6.90;;;15.90;97.00;;;;;;5084561;28;20509;-73
2023/05/23 08:08:52;;;;;;;7.03;6.30;;;15.90;96.50;;;;;;5086656;28;21243;-73
2023/05/23 08:11:19;;;;;;;7.28;6.57;;;15.90;96.50;;;;;;5066736;28;20442;-73
2023/05/23 08:13:45;;;;;;;7.07;6.45;;;15.90;96.50;;;;;;5064134;28;20442;-73
2023/05/23 08:16:12;;;;;;;7.68;6.65;;;15.90;96.80;;;;;;5070818;28;20439;-73
2023/05/23 08:18:39;;;;;;;7.07;6.47;;;16.00;96.90;;;;;;5065522;28;20693;-73
2023/05/23 08:21:07;;;;;;;6.50;5.90;;;16.00;95.50;;;;;;5063628;28;20429;-73
2023/05/23 08:23:34;;;;;;;7.88;7.18;;;16.00;95.60;;;;;;5064525;28;20925;-74
2023/05/23 08:26:01;;;;;;;8.38;6.50;;;16.00;95.60;;;;;;5064739;28;20433;-73
2023/05/23 08:28:28;;;;;;;7.40;6.70;;;16.00;95.50;;;;;;5063383;28;20480;-74
2023/05/23 08:30:56;;;;;;;7.32;6.50;;;15.90;95.50;;;;;;5063392;28;20447;-72
2023/05/23 08:33:22;;;;;;;7.55;6.85;;;15.80;95.50;;;;;;5066018;28;20443;-72
2023/05/23 08:35:49;;;;;;;7.82;7.03;;;15.80;95.40;;;;;;5065510;28;20514;-73
2023/05/23 08:38:20;;;;;;;7.20;6.50;;;15.70;96.00;;;;;;5058983;28;20443;-73
2023/05/23 08:40:50;;;;;;;8.00;6.40;;;15.60;96.40;;;;;;5062249;28;20449;-72
2023/05/23 08:43:17;;;;;;;7.75;6.75;;;15.70;96.30;;;;;;5064784;28;20427;-73
2023/05/23 08:45:44;;;;;;;8.63;7.70;;;15.70;96.00;;;;;;5062048;28;20434;-72
2023/05/23 08:48:13;;;;;;;8.77;6.57;;;15.60;96.20;;;;;;5067403;28;20837;-72
2023/05/23 08:50:45;;;;;;;8.50;7.13;;;15.60;96.40;;;;;;5062018;28;20444;-73
2023/05/23 08:53:19;;;;;;;8.00;7.20;;;15.60;96.70;;;;;;5068008;28;20512;-73
2023/05/23 08:55:47;;;;;;;9.30;7.57;;;15.60;97.00;;;;;;5064855;28;20514;-73
2023/05/23 08:58:15;;;;;;;10.80;8.20;;;15.60;97.40;;;;;;5065465;28;22333;-73
2023/05/23 09:00:43;;;;;;;7.93;7.10;;;15.60;97.30;;;;;;5065438;28;20427;-73
2023/05/23 09:03:11;;;;;;;8.82;8.02;;;15.50;96.20;;;;;;5064758;28;20513;-74
2023/05/23 09:05:37;;;;;;;8.88;7.97;;;15.40;97.00;;;;;;5066066;28;20439;-72
2023/05/23 09:08:04;;;;;;;8.73;7.82;;;15.40;97.30;;;;;;5065232;28;20828;-72
2023/05/23 09:10:31;;;;;;;9.57;8.52;;;15.40;97.50;;;;;;5063762;28;20432;-70
2023/05/23 09:13:00;;;;;;;9.40;7.70;;;15.40;97.70;;;;;;5064053;28;20419;-70
2023/05/23 09:15:27;;;;;;;10.10;7.97;;;15.60;97.40;;;;;;5073872;28;21057;-69
2023/05/23 09:18:00;;;;;;;10.40;8.32;;;15.60;97.10;;;;;;5068962;28;20435;-70
2023/05/23 09:20:28;;;;;;;11.32;8.13;;;15.70;96.80;;;;;;5070002;28;20894;-71
2023/05/23 09:22:55;;;;;;;9.60;8.20;;;15.70;97.00;;;;;;5069004;28;20447;-71
2023/05/23 09:25:22;;;;;;;10.65;8.00;;;15.80;97.00;;;;;;5065704;28;20419;-71
2023/05/23 09:27:49;;;;;;;8.73;7.82;;;15.80;97.20;;;;;;5071449;28;20438;-69
2023/05/23 09:30:18;;;;;;;12.35;8.38;;;15.80;96.80;;;;;;5071780;28;20435;-70
2023/05/23 09:32:58;;;;;;;10.30;8.20;;;15.90;96.10;;;;;;5074176;28;20997;-72
2023/05/23 09:35:25;;;;;;;11.95;8.93;;;15.80;96.50;;;;;;5069014;28;20427;-69
2023/05/23 09:37:54;;;;;;;14.20;8.45;;;15.70;96.60;;;;;;5063729;28;20981;-69
2023/05/23 09:40:21;;;;;;;11.77;8.93;;;15.70;96.40;;;;;;5062054;28;20433;-71
2023/05/23 09:42:50;;;;;;;9.82;8.52;;;15.60;96.90;;;;;;5062636;28;20427;-70
2023/05/23 09:45:18;;;;;;;12.05;8.63;;;15.60;96.20;;;;;;5060819;28;20439;-70
2023/05/23 09:47:50;;;;;;;10.88;8.60;;;15.50;96.20;;;;;;5060643;28;20468;-70
2023/05/23 09:50:17;;;;;;;9.82;8.65;;;15.40;96.00;;;;;;5062405;28;20481;-70
2023/05/23 09:52:45;;;;;;;9.50;7.95;;;15.40;95.80;;;;;;5067853;28;20419;-70
2023/05/23 09:55:12;;;;;;;10.45;8.57;;;15.40;95.90;;;;;;5065430;28;20443;-71
2023/05/23 09:57:41;;;;;;;11.70;9.68;;;15.40;96.00;;;;;;5065144;28;20431;-70
2023/05/23 10:00:10;;;;;;;10.60;9.50;;;15.50;95.90;;;;;;5065324;28;20521;-71
2023/05/23 10:02:58;;;;;;;10.98;9.90;;;15.50;95.60;;;;;;5067600;28;20860;-70
2023/05/23 10:05:35;;;;;;;13.23;11.20;;;15.50;95.40;;;;;;5059648;28;20449;-71
2023/05/23 10:08:06;;;;;;;13.23;11.73;;;15.50;94.80;;;;;;5066582;28;20486;-70
2023/05/23 10:10:33;;;;;;;13.95;12.60;;;15.60;94.70;;;;;;5062189;28;20442;-72
2023/05/23 10:13:03;;;;;;;15.80;13.90;;;15.70;94.70;;;;;;5061412;28;20790;-71
2023/05/23 10:15:37;;;;;;;15.15;13.35;;;15.90;94.70;;;;;;5061376;28;20456;-70
2023/05/23 10:18:10;;;;;;;14.55;12.95;;;16.20;94.00;;;;;;5062801;28;20445;-70
2023/05/23 10:20:40;;;;;;;13.40;12.05;;;16.60;93.40;;;;;;5061069;28;20537;-70
2023/05/23 10:23:07;;;;;;;11.20;10.10;;;16.90;91.70;;;;;;5058691;28;20439;-70
2023/05/23 10:25:35;;;;;;;9.15;6.45;;;16.90;91.40;;;;;;5064828;28;20894;-70
2023/05/23 10:28:02;;;;;;;7.03;6.32;;;16.70;90.10;;;;;;5064839;28;20423;-70
2023/05/23 10:30:29;;;;;;;10.00;7.03;;;16.50;91.50;;;;;;5063243;28;20435;-70
2023/05/23 10:32:57;;;;;;;9.03;7.20;;;16.20;91.60;;;;;;5065383;28;21000;-70
2023/05/23 10:35:38;;;;;;;8.30;6.95;;;16.00;91.70;;;;;;5064741;28;20427;-70
2023/05/23 10:38:11;;;;;;;9.43;7.10;;;16.00;91.40;;;;;;5060857;28;20431;-70
2023/05/23 10:40:48;;;;;;;8.80;7.35;;;15.80;91.40;;;;;;5067769;28;20466;-70
2023/05/23 10:43:22;;;;;;;8.27;7.22;;;15.70;92.70;;;;;;5076690;28;20932;-70
2023/05/23 10:45:50;;;;;;;10.07;7.10;;;15.80;92.70;;;;;;5073437;28;20433;-70
2023/05/23 10:48:21;;;;;;;9.05;7.00;;;15.90;91.80;;;;;;5083820;28;20431;-71
2023/05/23 10:51:03;;;;;;;7.75;6.40;;;15.80;90.80;;;;;;5080640;28;20770;-70
2023/05/23 10:53:32;;;;;;;8.40;6.80;;;16.00;90.50;;;;;;5071577;28;20421;-70
2023/05/23 10:55:59;;;;;;;8.32;6.60;;;16.00;90.60;;;;;;5062230;28;20439;-71
2023/05/23 10:58:29;;;;;;;7.28;5.90;;;16.10;89.20;;;;;;5061519;28;20435;-71
2023/05/23 11:00:57;;;;;;;6.63;5.93;;;16.20;88.80;;;;;;5063892;28;20423;-72
2023/05/23 11:03:34;;;;;;;7.95;5.70;;;16.30;89.20;;;;;;5063480;28;20435;-71
2023/05/23 11:06:03;;;;;;;7.32;5.60;;;16.50;89.70;;;;;;5059208;28;20427;-71
2023/05/23 11:08:41;;;;;;;6.60;5.60;;;16.60;87.50;;;;;;5060920;28;20521;-71
2023/05/23 11:11:08;;;;;;;6.30;5.70;;;16.50;88.10;;;;;;5063663;28;20481;-70
2023/05/23 11:13:56;;;;;;;7.93;5.90;;;16.30;88.40;;;;;;5063476;28;20441;-70
2023/05/23 11:16:27;;;;;;;7.45;6.57;;;16.20;88.80;;;;;;5062883;28;20423;-71
2023/05/23 11:19:21;;;;;;;7.20;6.50;;;16.10;89.30;;;;;;5059987;28;20446;-71
2023/05/23 11:21:53;;;;;;;8.07;7.35;;;16.00;89.50;;;;;;5065692;28;20457;-72
2023/05/23 11:24:20;;;;;;;7.22;6.53;;;16.00;86.90;;;;;;5063548;28;20839;-71
2023/05/23 11:26:56;;;;;;;9.70;7.40;;;15.90;89.00;;;;;;5057799;28;20559;-72
2023/05/23 11:29:23;;;;;;;7.78;7.07;;;15.80;89.90;;;;;;5064323;28;20510;-70
2023/05/23 11:31:49;;;;;;;8.23;7.43;;;15.80;89.30;;;;;;5065461;28;20436;-69
2023/05/23 11:34:17;;;;;;;8.75;7.05;;;15.80;87.40;;;;;;5064779;28;20424;-70
2023/05/23 11:36:44;;;;;;;8.90;8.00;;;15.70;87.80;;;;;;5069556;28;20431;-70
2023/05/23 11:39:14;;;;;;;9.38;8.48;;;15.70;88.00;;;;;;5066419;28;20426;-70
2023/05/23 11:41:42;;;;;;;8.93;8.00;;;15.80;86.70;;;;;;5064346;28;20434;-69
2023/05/23 11:44:12;;;;;;;9.63;8.65;;;15.90;86.80;;;;;;5065093;28;20497;-70
2023/05/23 11:46:40;;;;;;;9.35;8.30;;;16.10;86.90;;;;;;5064569;28;20533;-70
2023/05/23 11:49:11;;;;;;;9.13;8.23;;;16.30;85.20;;;;;;5066249;28;20435;-70
2023/05/23 11:51:38;;;;;;;9.82;8.82;;;16.60;83.20;;;;;;5067977;28;20484;-70
2023/05/23 11:54:05;;;;;;;9.32;8.40;;;16.90;81.20;;;;;;5066449;28;20433;-70
2023/05/23 11:56:39;;;;;;;10.32;9.32;;;17.30;79.20;;;;;;5069144;28;20435;-70
2023/05/23 11:59:06;;;;;;;10.38;9.18;;;17.80;76.60;;;;;;5062885;28;20442;-71
2023/05/23 12:01:33;;;;;;;11.40;10.20;;;18.20;75.20;;;;;;5067557;28;21061;-69
2023/05/23 12:04:00;;;;;;;11.25;10.25;;;18.60;74.10;;;;;;5064838;28;21001;-69
2023/05/23 12:06:26;;;;;;;10.50;9.60;;;19.10;70.70;;;;;;5067462;28;20428;-70
2023/05/23 12:08:53;;;;;;;10.50;9.60;;;19.50;68.60;;;;;;5064604;28;20434;-72
2023/05/23 12:11:22;;;;;;;9.73;8.93;;;19.90;63.60;;;;;;5065204;28;20431;-71
2023/05/23 12:13:52;;;;;;;10.18;9.20;;;20.00;63.40;;;;;;5071718;28;20428;-73
2023/05/23 12:16:20;;;;;;;10.30;9.20;;;20.10;62.30;;;;;;5075915;28;20429;-72
2023/05/23 12:18:47;;;;;;;9.80;8.90;;;19.90;62.40;;;;;;5074896;28;20442;-72
2023/05/23 12:21:14;;;;;;;8.77;7.97;;;19.70;64.10;;;;;;5073487;28;20446;-72
2023/05/23 12:23:42;;;;;;;8.60;7.80;;;19.50;64.40;;;;;;5065963;28;20451;-70
2023/05/23 12:26:09;;;;;;;9.32;8.43;;;19.50;64.20;;;;;;5064228;28;20797;-72
2023/05/23 12:28:38;;;;;;;9.23;8.43;;;19.60;64.20;;;;;;5061417;28;20481;-71
2023/05/23 12:31:16;;;;;;;9.70;8.90;;;19.60;63.40;;;;;;5065234;28;20434;-71
2023/05/23 12:33:43;;;;;;;10.77;8.40;;;19.60;62.60;;;;;;5067519;28;20423;-69
2023/05/23 12:36:10;;;;;;;8.18;7.30;;;19.50;62.40;;;;;;5062975;28;21474;-68
2023/05/23 12:38:39;;;;;;;7.50;6.90;;;19.40;63.40;;;;;;5070465;28;20435;-71
2023/05/23 12:41:10;;;;;;;7.43;6.53;;;19.30;63.00;;;;;;5065378;28;20433;-71
2023/05/23 12:43:38;;;;;;;7.45;5.50;;;19.10;63.50;;;;;;5068129;28;20427;-71
2023/05/23 12:46:05;;;;;;;5.90;5.30;;;19.10;65.30;;;;;;5070957;28;20439;-71
2023/05/23 12:48:33;;;;;;;7.00;5.90;;;19.10;64.20;;;;;;5066155;28;20524;-71
2023/05/23 12:51:01;;;;;;;8.32;7.00;;;19.20;62.90;;;;;;5061103;28;20427;-71